createdAt,value
2023-03-22T00:00:15.287Z,34.30
2023-03-22T00:05:40.061Z,33.00
2023-03-22T00:10:42.863Z,31.80
2023-03-22T00:15:48.672Z,25.70
2023-03-22T00:20:54.096Z,25.00
2023-03-22T00:25:57.374Z,24.80
2023-03-22T00:31:01.741Z,24.10
2023-03-22T00:36:10.471Z,23.30
2023-03-22T00:41:19.109Z,22.70
2023-03-22T00:46:22.004Z,24.20
2023-03-22T00:51:24.888Z,26.10
2023-03-22T00:56:29.096Z,72.50
2023-03-22T01:01:32.041Z,67.20
2023-03-22T01:06:35.508Z,57.10
2023-03-22T01:11:38.301Z,30.90
2023-03-22T01:16:41.121Z,36.20
2023-03-22T01:21:44.437Z,38.30
2023-03-22T01:26:47.195Z,33.80
2023-03-22T01:31:50.134Z,26.20
2023-03-22T01:36:53.909Z,26.20
2023-03-22T01:41:56.638Z,25.20
2023-03-22T01:46:59.474Z,25.60
2023-03-22T01:52:06.999Z,19.10
2023-03-22T01:57:09.914Z,21.00
2023-03-22T02:02:20.109Z,19.60
2023-03-22T02:07:27.226Z,20.70
2023-03-22T02:17:44.496Z,20.40
2023-03-22T02:23:09.076Z,23.20
2023-03-22T02:28:23.861Z,18.70
2023-03-22T02:33:45.302Z,19.90
2023-03-22T02:38:53.890Z,20.00
2023-03-22T02:43:56.840Z,18.30
2023-03-22T02:49:38.584Z,21.90
2023-03-22T02:55:03.130Z,21.80
2023-03-22T03:00:11.770Z,23.80
2023-03-22T03:05:17.346Z,25.30
2023-03-22T03:10:21.477Z,20.30
2023-03-22T03:15:26.033Z,22.20
2023-03-22T03:20:32.127Z,24.00
2023-03-22T03:25:43.686Z,24.60
2023-03-22T03:31:01.537Z,25.50
2023-03-22T03:36:10.800Z,32.50
2023-03-22T03:41:23.780Z,24.30
2023-03-22T03:46:29.224Z,37.00
2023-03-22T03:51:33.397Z,26.00
2023-03-22T03:56:36.157Z,25.40
2023-03-22T04:01:40.288Z,25.30
2023-03-22T04:06:43.828Z,24.80
2023-03-22T04:11:46.609Z,22.50
2023-03-22T04:16:49.741Z,24.80
2023-03-22T04:21:53.286Z,25.30
2023-03-22T04:26:56.130Z,25.70
2023-03-22T04:31:58.871Z,25.10
2023-03-22T04:37:02.768Z,25.20
2023-03-22T04:42:05.644Z,22.50
2023-03-22T04:47:08.482Z,23.20
2023-03-22T04:52:11.592Z,25.20
2023-03-22T04:57:14.386Z,28.20
2023-03-22T05:02:18.471Z,23.20
2023-03-22T05:07:21.670Z,27.90
2023-03-22T05:12:24.519Z,28.30
2023-03-22T05:17:27.252Z,23.80
2023-03-22T05:22:30.000Z,28.00
2023-03-22T05:27:35.108Z,24.90
2023-03-22T05:32:43.088Z,29.50
2023-03-22T05:37:45.981Z,31.60
2023-03-22T05:42:48.885Z,34.70
2023-03-22T05:47:52.073Z,33.70
2023-03-22T05:52:54.948Z,30.50
2023-03-22T05:57:59.964Z,33.90
2023-03-22T06:03:05.883Z,34.00
2023-03-22T06:08:08.625Z,44.30
2023-03-22T06:13:11.525Z,29.80
2023-03-22T06:18:14.610Z,26.90
2023-03-22T06:23:17.379Z,25.70
2023-03-22T06:28:20.213Z,26.80
2023-03-22T06:33:23.036Z,24.80
2023-03-22T06:38:25.854Z,24.70
2023-03-22T06:43:28.687Z,27.60
2023-03-22T06:48:31.456Z,24.30
2023-03-22T06:53:35.325Z,27.50
2023-03-22T06:58:38.108Z,24.60
2023-03-22T07:03:40.961Z,26.70
2023-03-22T07:08:43.954Z,28.90
2023-03-22T07:13:46.922Z,25.50
2023-03-22T07:18:50.062Z,30.50
2023-03-22T07:23:53.225Z,28.20
2023-03-22T07:29:11.058Z,27.20
2023-03-22T07:34:14.264Z,34.10
2023-03-22T07:39:17.182Z,26.60
2023-03-22T07:44:20.074Z,27.20
2023-03-22T07:49:23.375Z,32.00
2023-03-22T07:54:36.712Z,33.10
2023-03-22T07:59:40.276Z,37.60
2023-03-22T08:04:43.101Z,33.10
2023-03-22T08:09:47.173Z,33.60
2023-03-22T08:14:51.274Z,32.90
2023-03-22T08:19:56.882Z,33.20
2023-03-22T08:24:59.634Z,32.00
2023-03-22T08:30:05.795Z,37.20
2023-03-22T08:35:09.477Z,33.10
2023-03-22T08:40:12.749Z,35.10
2023-03-22T08:45:15.889Z,31.70
2023-03-22T08:50:18.878Z,31.80
2023-03-22T08:55:24.217Z,31.10
2023-03-22T09:00:36.492Z,33.70
2023-03-22T09:05:48.817Z,34.50
2023-03-22T09:10:52.194Z,34.50
2023-03-22T09:15:55.241Z,38.70
2023-03-22T09:20:58.132Z,34.60
2023-03-22T09:26:02.477Z,40.60
2023-03-22T09:31:08.752Z,44.00
2023-03-22T09:36:12.224Z,44.10
2023-03-22T09:41:24.928Z,47.40
2023-03-22T09:46:33.677Z,44.40
2023-03-22T09:51:47.336Z,41.80
2023-03-22T09:57:08.189Z,41.40
2023-03-22T10:02:31.524Z,45.20
2023-03-22T10:07:58.682Z,47.90
2023-03-22T10:13:14.840Z,39.60
2023-03-22T10:18:24.906Z,50.20
2023-03-22T10:23:38.062Z,51.80
2023-03-22T10:28:44.861Z,48.30
2023-03-22T10:33:59.542Z,41.60
2023-03-22T10:39:10.238Z,54.10
2023-03-22T10:44:19.115Z,51.50
2023-03-22T10:49:32.452Z,42.60
2023-03-22T10:54:38.329Z,48.30
2023-03-22T10:59:53.087Z,49.40
2023-03-22T11:05:03.040Z,44.40
2023-03-22T11:10:08.875Z,43.40
2023-03-22T11:15:34.725Z,45.10
2023-03-22T11:20:41.861Z,45.40
2023-03-22T11:25:47.875Z,50.00
2023-03-22T11:31:15.739Z,45.40
2023-03-22T11:36:27.298Z,41.60
2023-03-22T11:41:35.155Z,42.50
2023-03-22T11:46:38.667Z,43.90
2023-03-22T11:52:54.495Z,45.70
2023-03-22T11:58:00.567Z,47.90
2023-03-22T12:03:15.338Z,47.80
2023-03-22T12:08:33.521Z,42.50
2023-03-22T12:14:00.380Z,43.90
2023-03-22T12:19:48.818Z,36.60
2023-03-22T12:25:29.142Z,42.40
2023-03-22T12:31:38.710Z,44.30
2023-03-22T12:37:56.055Z,43.40
2023-03-22T12:43:08.167Z,42.20
2023-03-22T12:48:20.445Z,37.40
2023-03-22T12:53:30.091Z,43.00
2023-03-22T12:58:37.451Z,43.40
2023-03-22T13:03:48.588Z,39.60
2023-03-22T13:09:04.983Z,38.10
2023-03-22T13:14:08.297Z,48.40
2023-03-22T13:19:29.692Z,38.50
2023-03-22T13:24:33.356Z,42.10
2023-03-22T13:29:38.179Z,47.00
2023-03-22T13:34:47.501Z,46.30
2023-03-22T13:39:52.221Z,51.80
2023-03-22T13:45:00.131Z,44.40
2023-03-22T13:50:07.435Z,53.90
2023-03-22T13:55:36.349Z,57.90
2023-03-22T14:00:44.883Z,43.60
2023-03-22T14:05:56.309Z,44.30
2023-03-22T14:11:11.650Z,47.10
2023-03-22T14:16:48.528Z,44.20
